createdAt,value
2022-09-23T00:01:14.355Z,95.30
2022-09-23T00:03:43.033Z,95.30
2022-09-23T00:06:22.232Z,95.20
2022-09-23T00:08:50.437Z,95.40
2022-09-23T00:11:20.314Z,95.70
2022-09-23T00:13:49.354Z,95.40
2022-09-23T00:16:20.673Z,95.40
2022-09-23T00:18:49.493Z,95.40
2022-09-23T00:21:17.341Z,95.60
2022-09-23T00:23:44.383Z,95.70
2022-09-23T00:26:15.894Z,95.50
2022-09-23T00:28:43.582Z,95.30
2022-09-23T00:31:16.015Z,95.20
2022-09-23T00:33:42.971Z,95.00
2022-09-23T00:36:12.371Z,95.00
2022-09-23T00:38:39.405Z,95.10
2022-09-23T00:41:06.659Z,95.10
2022-09-23T00:43:44.125Z,95.20
2022-09-23T00:46:34.130Z,95.50
2022-09-23T00:49:07.500Z,95.60
2022-09-23T00:51:39.749Z,96.00
2022-09-23T00:54:06.984Z,95.90
2022-09-23T00:56:35.533Z,96.00
2022-09-23T00:59:03.146Z,96.00
2022-09-23T01:01:30.024Z,96.30
2022-09-23T01:03:57.772Z,96.40
2022-09-23T01:06:25.274Z,96.30
2022-09-23T01:08:52.549Z,96.50
2022-09-23T01:11:42.820Z,96.50
2022-09-23T01:14:54.629Z,96.50
2022-09-23T01:17:39.813Z,96.60
2022-09-23T01:20:44.885Z,96.60
2022-09-23T01:23:35.602Z,96.60
2022-09-23T01:26:30.100Z,96.50
2022-09-23T01:29:21.606Z,96.40
2022-09-23T01:32:07.074Z,96.10
2022-09-23T01:34:58.336Z,95.90
2022-09-23T01:37:31.065Z,95.70
2022-09-23T01:40:16.065Z,95.70
2022-09-23T01:43:11.217Z,95.90
2022-09-23T01:45:43.641Z,96.20
2022-09-23T01:48:40.651Z,96.20
2022-09-23T01:51:15.506Z,96.30
2022-09-23T01:54:16.084Z,96.30
2022-09-23T01:56:58.903Z,96.50
2022-09-23T01:59:38.060Z,96.40
2022-09-23T02:02:23.762Z,96.50
2022-09-23T02:05:28.011Z,96.50
2022-09-23T02:08:03.264Z,96.90
2022-09-23T02:10:45.664Z,96.70
2022-09-23T02:13:30.241Z,97.00
2022-09-23T02:16:02.188Z,96.90
2022-09-23T02:18:34.379Z,97.10
2022-09-23T02:21:06.889Z,97.10
2022-09-23T02:23:42.523Z,97.20
2022-09-23T02:26:23.377Z,97.30
2022-09-23T02:29:13.085Z,97.10
2022-09-23T02:31:56.577Z,97.30
2022-09-23T02:34:32.382Z,97.30
2022-09-23T02:37:11.664Z,97.20
2022-09-23T02:40:03.035Z,97.20
2022-09-23T02:43:07.517Z,97.40
2022-09-23T02:45:35.630Z,97.40
2022-09-23T02:48:11.949Z,97.20
2022-09-23T02:50:39.280Z,97.20
2022-09-23T02:53:07.603Z,97.20
2022-09-23T02:55:34.546Z,97.10
2022-09-23T02:58:03.046Z,97.20
2022-09-23T03:00:55.838Z,97.10
2022-09-23T03:03:43.967Z,96.80
2022-09-23T03:06:29.373Z,96.70
2022-09-23T03:09:09.167Z,96.40
2022-09-23T03:11:39.809Z,95.90
2022-09-23T03:14:40.797Z,96.40
2022-09-23T03:17:25.234Z,95.90
2022-09-23T03:20:03.583Z,96.10
2022-09-23T03:22:35.536Z,96.00
2022-09-23T03:25:09.002Z,96.00
2022-09-23T03:27:37.851Z,96.20
2022-09-23T03:30:06.932Z,96.00
2022-09-23T03:32:36.026Z,96.00
2022-09-23T03:35:05.631Z,95.70
2022-09-23T03:37:55.469Z,95.80
2022-09-23T03:40:33.026Z,96.10
2022-09-23T03:43:01.574Z,96.60
2022-09-23T03:45:32.727Z,96.90
2022-09-23T03:48:00.008Z,97.30
2022-09-23T03:50:27.334Z,97.30
2022-09-23T03:52:54.222Z,97.40
2022-09-23T03:55:21.476Z,97.50
2022-09-23T03:57:48.765Z,97.60
2022-09-23T04:00:16.067Z,97.70
2022-09-23T04:02:43.758Z,97.50
2022-09-23T04:05:11.819Z,97.50
2022-09-23T04:07:38.944Z,97.40
2022-09-23T04:10:06.967Z,97.30
2022-09-23T04:12:33.785Z,97.30
2022-09-23T04:15:00.585Z,96.80
2022-09-23T04:17:27.463Z,97.20
2022-09-23T04:19:54.287Z,97.20
2022-09-23T04:22:21.140Z,96.80
2022-09-23T04:24:49.341Z,96.40
2022-09-23T04:27:16.176Z,96.40
2022-09-23T04:29:43.018Z,96.10
2022-09-23T04:32:10.296Z,96.30
2022-09-23T04:34:37.215Z,96.10
2022-09-23T04:37:04.092Z,96.10
2022-09-23T04:39:31.064Z,96.00
2022-09-23T04:41:57.919Z,95.70
2022-09-23T04:44:25.686Z,95.60
2022-09-23T04:46:52.677Z,96.00
2022-09-23T04:49:19.621Z,95.60
2022-09-23T04:51:46.534Z,96.30
2022-09-23T04:54:15.005Z,95.40
2022-09-23T04:56:42.358Z,95.60
2022-09-23T04:59:09.268Z,95.80
2022-09-23T05:01:36.654Z,95.80
2022-09-23T05:04:07.617Z,95.70
2022-09-23T05:06:35.749Z,95.70
2022-09-23T05:09:05.248Z,96.00
2022-09-23T05:11:32.379Z,95.10
2022-09-23T05:13:59.504Z,95.00
2022-09-23T05:16:27.296Z,94.60
2022-09-23T05:18:54.728Z,94.80
2022-09-23T05:21:24.065Z,94.90
2022-09-23T05:23:56.570Z,95.20
2022-09-23T05:26:25.601Z,95.70
2022-09-23T05:28:53.992Z,95.90
2022-09-23T05:31:23.178Z,96.00
2022-09-23T05:33:52.591Z,95.90
2022-09-23T05:36:21.388Z,96.10
2022-09-23T05:38:50.153Z,96.40
2022-09-23T05:41:18.169Z,96.40
2022-09-23T05:43:45.444Z,96.40
2022-09-23T05:46:18.053Z,96.30
2022-09-23T05:48:48.181Z,96.20
2022-09-23T05:51:18.520Z,96.40
2022-09-23T05:53:45.675Z,96.20
2022-09-23T05:56:17.768Z,96.10
2022-09-23T05:58:45.360Z,96.10
2022-09-23T06:01:18.303Z,95.80
2022-09-23T06:03:49.053Z,95.90
2022-09-23T06:06:20.203Z,96.00
2022-09-23T06:08:47.732Z,96.40
2022-09-23T06:11:15.088Z,96.80
2022-09-23T06:13:42.533Z,96.90
2022-09-23T06:16:12.301Z,97.10
2022-09-23T06:18:40.959Z,97.10
2022-09-23T06:21:10.137Z,97.00
2022-09-23T06:23:39.912Z,97.00
2022-09-23T06:26:10.352Z,97.10
2022-09-23T06:28:39.280Z,97.10
2022-09-23T06:31:13.121Z,97.30
2022-09-23T06:33:40.763Z,97.30
2022-09-23T06:36:08.217Z,97.70
2022-09-23T06:38:38.228Z,97.60
2022-09-23T06:41:05.176Z,97.70
2022-09-23T06:43:32.079Z,97.80
2022-09-23T06:46:00.923Z,97.70
2022-09-23T06:48:28.781Z,97.70
2022-09-23T06:50:59.568Z,97.50
2022-09-23T06:53:26.388Z,97.40
2022-09-23T06:56:05.081Z,97.30
2022-09-23T06:58:33.608Z,97.20
2022-09-23T07:01:05.892Z,97.30
2022-09-23T07:03:33.531Z,97.30
2022-09-23T07:06:00.824Z,97.00
2022-09-23T07:08:29.365Z,96.80
2022-09-23T07:10:58.581Z,96.70
2022-09-23T07:13:26.127Z,96.80
2022-09-23T07:15:55.374Z,96.30
2022-09-23T07:18:25.723Z,96.50
2022-09-23T07:20:53.287Z,96.50
2022-09-23T07:23:20.666Z,96.20
2022-09-23T07:25:50.435Z,96.20
2022-09-23T07:28:17.753Z,96.20
2022-09-23T07:30:55.131Z,96.50
2022-09-23T07:33:32.284Z,97.20
2022-09-23T07:35:59.717Z,96.90
2022-09-23T07:38:30.244Z,96.50
2022-09-23T07:41:02.586Z,97.00
2022-09-23T07:43:32.523Z,97.50
2022-09-23T07:46:03.180Z,97.30
2022-09-23T07:48:34.276Z,97.40
2022-09-23T07:51:07.164Z,97.20
2022-09-23T07:53:34.143Z,96.90
2022-09-23T07:56:01.133Z,97.10
2022-09-23T07:58:28.074Z,97.20
2022-09-23T08:00:54.883Z,97.10
2022-09-23T08:03:21.774Z,96.30
2022-09-23T08:05:48.660Z,96.70
2022-09-23T08:08:15.484Z,96.80
2022-09-23T08:10:42.822Z,96.80
2022-09-23T08:13:09.962Z,96.40
2022-09-23T08:15:36.806Z,96.00
2022-09-23T08:18:04.087Z,95.90
2022-09-23T08:20:47.784Z,95.90
2022-09-23T08:23:16.803Z,96.30
2022-09-23T08:25:47.853Z,95.60
2022-09-23T08:28:19.244Z,95.30
2022-09-23T08:30:49.663Z,95.20
2022-09-23T08:33:20.972Z,94.80
2022-09-23T08:35:50.297Z,94.90
2022-09-23T08:38:17.080Z,94.90
2022-09-23T08:40:47.490Z,94.90
2022-09-23T08:43:32.825Z,94.70
2022-09-23T08:46:06.204Z,95.20
2022-09-23T08:48:38.603Z,95.10
2022-09-23T08:51:13.971Z,94.90
2022-09-23T08:53:42.312Z,94.10
2022-09-23T08:56:16.854Z,94.00
2022-09-23T08:58:46.425Z,93.70
2022-09-23T09:01:13.195Z,95.00
2022-09-23T09:03:45.869Z,95.90
2022-09-23T09:06:24.337Z,96.70
2022-09-23T09:08:57.515Z,95.40
2022-09-23T09:11:35.282Z,93.30
2022-09-23T09:14:15.268Z,93.30
2022-09-23T09:17:06.219Z,94.30
2022-09-23T09:20:18.937Z,94.40
2022-09-23T09:22:52.701Z,95.90
2022-09-23T09:25:22.574Z,94.30
2022-09-23T09:27:49.867Z,94.50
2022-09-23T09:30:17.622Z,94.90
2022-09-23T09:32:55.139Z,95.00
2022-09-23T09:35:33.231Z,95.70
2022-09-23T09:38:01.849Z,94.30
2022-09-23T09:40:28.870Z,93.50
2022-09-23T09:42:55.730Z,93.90
2022-09-23T09:46:00.287Z,94.10
2022-09-23T09:48:39.266Z,94.10
2022-09-23T09:51:22.706Z,93.70
2022-09-23T09:53:53.101Z,93.20
2022-09-23T09:56:31.556Z,93.80
2022-09-23T09:59:08.633Z,93.90
2022-09-23T10:01:35.791Z,93.00
2022-09-23T10:04:19.820Z,92.70
2022-09-23T10:07:09.555Z,92.60
2022-09-23T10:09:38.788Z,93.30
2022-09-23T10:12:09.460Z,94.00
2022-09-23T10:14:36.462Z,95.00
2022-09-23T10:17:06.671Z,95.60
2022-09-23T10:19:37.216Z,95.10
2022-09-23T10:22:08.922Z,93.70
2022-09-23T10:24:39.147Z,94.70
2022-09-23T10:27:09.860Z,93.20
2022-09-23T10:29:48.526Z,93.70
2022-09-23T10:32:27.070Z,93.50
2022-09-23T10:35:02.018Z,93.80
2022-09-23T10:37:46.793Z,92.90
2022-09-23T10:41:04.613Z,94.60
2022-09-23T10:44:15.283Z,95.00
2022-09-23T10:47:02.445Z,94.90
2022-09-23T10:49:44.380Z,94.70
2022-09-23T10:52:43.302Z,95.20
2022-09-23T10:55:28.016Z,95.30
2022-09-23T10:58:17.546Z,94.90
2022-09-23T11:00:59.228Z,95.70
2022-09-23T11:03:35.228Z,95.40
2022-09-23T11:06:20.379Z,95.90
2022-09-23T11:09:05.970Z,94.80
2022-09-23T11:12:11.737Z,94.00
2022-09-23T11:14:57.685Z,91.90
2022-09-23T11:17:30.432Z,91.70
2022-09-23T11:20:28.064Z,92.10
2022-09-23T11:23:26.608Z,92.40
2022-09-23T11:26:05.522Z,93.70
2022-09-23T11:29:12.122Z,93.40
2022-09-23T11:32:02.364Z,94.60
2022-09-23T11:34:40.499Z,93.00
2022-09-23T11:37:16.821Z,91.60
2022-09-23T11:39:53.412Z,90.60
2022-09-23T11:42:25.516Z,91.00
2022-09-23T11:45:23.451Z,91.50
2022-09-23T11:48:16.560Z,91.40
2022-09-23T11:50:50.188Z,90.70
2022-09-23T11:53:29.022Z,90.90
2022-09-23T11:56:05.171Z,91.00
2022-09-23T12:01:38.220Z,91.00
2022-09-23T12:04:29.173Z,91.30
2022-09-23T12:07:01.248Z,91.40
2022-09-23T12:09:57.629Z,92.20
2022-09-23T12:12:48.922Z,92.20
2022-09-23T12:15:44.364Z,92.20
2022-09-23T12:18:34.559Z,91.10
2022-09-23T12:21:48.603Z,91.80
2022-09-23T12:24:22.920Z,92.50
2022-09-23T12:26:54.448Z,92.80
2022-09-23T12:29:21.490Z,95.10
2022-09-23T12:31:49.828Z,93.10
2022-09-23T12:34:30.420Z,92.10
2022-09-23T12:37:04.878Z,91.50
2022-09-23T12:39:34.640Z,92.90
2022-09-23T12:42:23.802Z,91.80
2022-09-23T12:44:52.847Z,93.10
2022-09-23T12:47:25.515Z,92.90
2022-09-23T12:50:01.171Z,91.10
2022-09-23T12:52:30.971Z,92.60
2022-09-23T12:55:02.992Z,92.30
2022-09-23T12:57:35.601Z,92.70
2022-09-23T13:00:13.958Z,92.00
2022-09-23T13:02:42.895Z,92.90
2022-09-23T13:05:40.715Z,91.80
2022-09-23T13:08:09.041Z,92.10
2022-09-23T13:10:49.783Z,92.80
2022-09-23T13:13:31.729Z,92.30
2022-09-23T13:16:33.235Z,93.00
2022-09-23T13:19:05.535Z,91.90
2022-09-23T13:21:46.907Z,94.20
2022-09-23T13:24:13.698Z,91.60
2022-09-23T13:26:45.820Z,93.80
2022-09-23T13:29:38.308Z,91.00
2022-09-23T13:32:06.408Z,90.50
2022-09-23T13:34:34.882Z,92.60
2022-09-23T13:37:40.120Z,91.30
2022-09-23T13:40:09.955Z,91.60
2022-09-23T13:42:40.664Z,90.00
2022-09-23T13:45:16.538Z,91.60
2022-09-23T13:47:45.293Z,91.50
2022-09-23T13:50:18.873Z,90.00
2022-09-23T13:52:46.284Z,90.30
2022-09-23T13:55:37.421Z,91.10
2022-09-23T13:58:21.927Z,92.70
2022-09-23T14:00:49.946Z,92.40
2022-09-23T14:03:36.133Z,93.30
2022-09-23T14:06:13.838Z,93.60
2022-09-23T14:08:45.544Z,93.80
2022-09-23T14:11:29.440Z,95.00
2022-09-23T14:13:57.593Z,93.10
2022-09-23T14:16:27.044Z,94.10
2022-09-23T14:18:59.920Z,94.80
2022-09-23T14:21:35.133Z,95.00
2022-09-23T14:24:20.147Z,94.30
2022-09-23T14:27:06.523Z,93.60
2022-09-23T14:29:38.749Z,93.10
2022-09-23T14:32:11.251Z,94.20
2022-09-23T14:35:05.155Z,93.10
2022-09-23T14:38:12.406Z,94.10
2022-09-23T14:40:51.571Z,92.20
2022-09-23T14:43:25.224Z,94.60
2022-09-23T14:46:01.178Z,93.20
2022-09-23T14:48:32.704Z,94.60
2022-09-23T14:51:06.309Z,94.50
2022-09-23T14:53:40.719Z,94.90
2022-09-23T14:56:07.498Z,94.80
2022-09-23T14:58:59.878Z,95.90
2022-09-23T15:01:32.804Z,95.70
2022-09-23T15:04:00.801Z,96.40
2022-09-23T15:06:27.962Z,95.70
2022-09-23T15:08:55.956Z,96.70
2022-09-23T15:11:23.007Z,96.80
2022-09-23T15:13:52.767Z,96.10
2022-09-23T15:16:27.193Z,96.40
2022-09-23T15:18:59.954Z,97.10
2022-09-23T15:21:41.011Z,95.20
2022-09-23T15:24:32.570Z,95.50
2022-09-23T15:26:59.399Z,94.60
2022-09-23T15:29:27.109Z,94.60
2022-09-23T15:31:55.184Z,92.90
2022-09-23T15:34:22.051Z,92.50
2022-09-23T15:36:49.692Z,94.00
2022-09-23T15:39:16.880Z,91.40
2022-09-23T15:41:44.161Z,90.30
2022-09-23T15:44:15.813Z,91.70
2022-09-23T15:46:48.031Z,93.80
2022-09-23T15:49:36.432Z,91.40
2022-09-23T15:52:05.124Z,93.00
2022-09-23T15:54:34.973Z,95.30
2022-09-23T15:57:02.145Z,95.30
2022-09-23T15:59:31.063Z,93.60
2022-09-23T16:02:01.268Z,91.30
2022-09-23T16:04:28.555Z,91.10
2022-09-23T16:06:55.508Z,91.30
2022-09-23T16:09:22.314Z,90.40
2022-09-23T16:11:51.999Z,91.00
2022-09-23T16:14:19.331Z,91.40
2022-09-23T16:16:47.871Z,89.40
2022-09-23T16:19:16.294Z,91.70
2022-09-23T16:21:44.656Z,92.60
2022-09-23T16:24:17.304Z,92.10
2022-09-23T16:26:46.640Z,92.20
2022-09-23T16:29:13.855Z,90.90
2022-09-23T16:31:40.812Z,91.80
2022-09-23T16:34:07.995Z,90.50
2022-09-23T16:36:38.273Z,91.00
2022-09-23T16:39:07.529Z,90.60
2022-09-23T16:41:34.380Z,91.10
2022-09-23T16:44:02.635Z,91.10
2022-09-23T16:46:31.456Z,92.30
2022-09-23T16:48:58.987Z,92.40
2022-09-23T16:51:28.854Z,91.20
2022-09-23T16:53:57.525Z,92.40
2022-09-23T16:56:28.954Z,91.20
2022-09-23T16:58:56.571Z,91.60
2022-09-23T17:01:45.056Z,92.70
2022-09-23T17:04:13.171Z,91.90
2022-09-23T17:06:51.241Z,91.90
2022-09-23T17:09:22.760Z,90.40
2022-09-23T17:12:04.348Z,90.10
2022-09-23T17:14:34.704Z,90.30
2022-09-23T17:17:01.475Z,92.40
2022-09-23T17:19:28.741Z,92.00
2022-09-23T17:21:55.573Z,93.00
2022-09-23T17:24:22.488Z,93.10
2022-09-23T17:26:52.750Z,94.40
2022-09-23T17:29:20.164Z,94.30
2022-09-23T17:31:47.024Z,94.40
2022-09-23T17:34:13.980Z,94.80
2022-09-23T17:36:40.856Z,94.80
2022-09-23T17:39:07.838Z,95.10
2022-09-23T17:41:34.742Z,95.40
2022-09-23T17:44:01.770Z,95.60
2022-09-23T17:46:30.258Z,95.50
2022-09-23T17:48:57.820Z,95.80
2022-09-23T17:51:25.631Z,94.00
2022-09-23T17:53:52.638Z,94.30
2022-09-23T17:56:31.188Z,95.60
2022-09-23T17:59:01.819Z,94.80
2022-09-23T18:01:28.880Z,94.80
2022-09-23T18:03:58.086Z,94.90
2022-09-23T18:06:27.465Z,93.70
2022-09-23T18:08:55.995Z,95.00
2022-09-23T18:11:31.496Z,93.50
2022-09-23T18:14:00.939Z,94.70
2022-09-23T18:16:30.417Z,95.30
2022-09-23T18:18:59.577Z,94.00
2022-09-23T18:21:29.613Z,91.60
2022-09-23T18:24:06.499Z,91.60
2022-09-23T18:26:44.528Z,90.70
2022-09-23T18:29:11.521Z,92.20
2022-09-23T18:31:39.332Z,91.90
2022-09-23T18:34:08.474Z,92.70
2022-09-23T18:36:35.483Z,90.30
2022-09-23T18:39:02.441Z,90.60
2022-09-23T18:41:29.526Z,89.20
2022-09-23T18:43:56.528Z,90.90
2022-09-23T18:46:29.972Z,89.90
2022-09-23T18:49:16.079Z,90.60
2022-09-23T18:51:56.964Z,91.10
2022-09-23T18:54:25.524Z,91.00
2022-09-23T18:56:52.885Z,90.70
2022-09-23T18:59:23.905Z,90.00
2022-09-23T19:01:51.422Z,88.80
2022-09-23T19:04:20.849Z,89.60
2022-09-23T19:06:48.258Z,88.40
2022-09-23T19:09:15.988Z,90.10
2022-09-23T19:11:43.432Z,90.10
2022-09-23T19:14:11.774Z,90.20
2022-09-23T19:16:40.252Z,89.20
2022-09-23T19:19:07.318Z,89.20
2022-09-23T19:21:34.663Z,89.90
2022-09-23T19:24:04.943Z,91.40
2022-09-23T19:26:38.349Z,90.10
2022-09-23T19:29:08.340Z,90.10
2022-09-23T19:31:40.080Z,90.70
2022-09-23T19:34:12.828Z,92.60
2022-09-23T19:36:42.288Z,93.40
2022-09-23T19:39:23.419Z,92.30
2022-09-23T19:41:52.374Z,93.60
2022-09-23T19:44:20.161Z,94.10
2022-09-23T19:46:53.444Z,94.30
2022-09-23T19:49:24.349Z,93.70
2022-09-23T19:51:51.395Z,94.30
2022-09-23T19:54:20.643Z,94.10
2022-09-23T19:56:49.712Z,94.50
2022-09-23T19:59:19.086Z,94.60
2022-09-23T20:01:47.037Z,94.20
2022-09-23T20:04:15.764Z,94.70
2022-09-23T20:06:42.793Z,94.80
2022-09-23T20:09:10.037Z,95.20
2022-09-23T20:11:36.978Z,95.40
2022-09-23T20:14:06.097Z,94.60
2022-09-23T20:16:35.351Z,94.70
2022-09-23T20:19:03.001Z,94.60
2022-09-23T20:21:30.312Z,94.80
2022-09-23T20:23:58.058Z,94.70
2022-09-23T20:26:43.876Z,95.40
2022-09-23T20:29:11.368Z,95.40
2022-09-23T20:31:40.541Z,95.70
2022-09-23T20:34:08.248Z,94.90
2022-09-23T20:36:36.213Z,95.90
2022-09-23T20:39:06.014Z,95.90
2022-09-23T20:41:37.205Z,95.30
2022-09-23T20:44:07.063Z,95.70
2022-09-23T20:46:34.534Z,95.40
2022-09-23T20:49:02.098Z,96.30
2022-09-23T20:51:29.081Z,95.40
2022-09-23T20:53:55.957Z,96.10
2022-09-23T20:56:23.384Z,95.30
2022-09-23T20:58:51.118Z,94.90
2022-09-23T21:01:18.310Z,95.40
2022-09-23T21:03:47.965Z,94.40
2022-09-23T21:06:16.553Z,94.80
2022-09-23T21:08:44.696Z,95.30
2022-09-23T21:11:16.839Z,95.00
2022-09-23T21:13:48.419Z,95.20
2022-09-23T21:16:17.206Z,94.60
2022-09-23T21:18:44.936Z,95.70
2022-09-23T21:21:14.174Z,94.90
2022-09-23T21:23:45.710Z,95.70
2022-09-23T21:26:15.500Z,95.10
2022-09-23T21:28:44.206Z,95.70
2022-09-23T21:31:22.952Z,95.40
2022-09-23T21:33:59.192Z,94.50
2022-09-23T21:36:31.609Z,95.30
2022-09-23T21:39:01.606Z,96.00
2022-09-23T21:41:28.866Z,95.10
2022-09-23T21:43:56.389Z,95.80
2022-09-23T21:46:24.054Z,95.20
2022-09-23T21:48:55.497Z,96.50
2022-09-23T21:51:24.853Z,96.20
2022-09-23T21:53:54.522Z,96.70
2022-09-23T21:56:27.371Z,96.60
2022-09-23T21:58:56.076Z,96.60
2022-09-23T22:01:28.026Z,97.00
2022-09-23T22:04:07.897Z,97.10
2022-09-23T22:06:38.213Z,95.80
2022-09-23T22:09:10.985Z,95.00
2022-09-23T22:11:57.708Z,95.60
2022-09-23T22:14:26.116Z,96.10
2022-09-23T22:16:59.118Z,95.80
2022-09-23T22:19:28.490Z,96.70
2022-09-23T22:21:56.250Z,96.20
2022-09-23T22:24:23.348Z,96.40
2022-09-23T22:26:50.167Z,96.80
2022-09-23T22:29:36.199Z,96.80
2022-09-23T22:32:23.317Z,97.30
2022-09-23T22:34:51.876Z,97.20
2022-09-23T22:37:34.316Z,97.20
2022-09-23T22:40:10.591Z,97.00
2022-09-23T22:42:37.892Z,96.90
2022-09-23T22:45:08.429Z,96.70
2022-09-23T22:47:37.685Z,96.70
2022-09-23T22:50:09.253Z,96.80
2022-09-23T22:52:36.523Z,96.60
2022-09-23T22:55:04.454Z,96.50
2022-09-23T22:57:31.407Z,96.70
2022-09-23T22:59:58.249Z,96.60
2022-09-23T23:02:25.169Z,96.70
2022-09-23T23:04:52.054Z,96.80
2022-09-23T23:07:21.220Z,97.70
2022-09-23T23:09:50.683Z,98.00
2022-09-23T23:12:20.349Z,98.50
2022-09-23T23:14:49.216Z,98.80
2022-09-23T23:17:16.367Z,98.60
2022-09-23T23:19:43.216Z,99.30
2022-09-23T23:22:10.053Z,98.70
2022-09-23T23:24:36.833Z,98.80
2022-09-23T23:27:03.699Z,99.20
2022-09-23T23:29:30.510Z,99.10
2022-09-23T23:31:57.322Z,98.90
2022-09-23T23:34:24.355Z,99.10
2022-09-23T23:36:55.114Z,99.90
2022-09-23T23:39:24.002Z,99.90
2022-09-23T23:41:56.283Z,99.90
2022-09-23T23:44:24.816Z,99.90
2022-09-23T23:46:52.628Z,99.90
2022-09-23T23:49:19.674Z,99.90
2022-09-23T23:51:46.608Z,99.90
2022-09-23T23:54:15.279Z,99.90
2022-09-23T23:56:42.715Z,99.90
2022-09-23T23:59:09.719Z,99.70
